Strona główna
METAR-TAF:

METAR-TAF

Lotnisko :

Benson, Anglia

Szerokość geograficzna: 51-37N, Długość geograficzna: 001-05W, wysokość: 63 m

Aktualna obserwacja pogody

Raport powstał 56 minut temu, godzina 02:50 UTC
Wiatr 2 kt od północ
Temperatura 1°C
Wilgotność 93%
Ciśnienie 1019 hPa
Widzialność 10 km lub więcej

METAR: EGUB 040250Z AUTO 35002KT 9999 // BKN070/// 01/00 Q1019

czas: 04:46 (03:46 UTC)

Prognoza

Raport powstał 14 godziny i 21 minut temu, godzina 13:25 UTC
Prognoza ważna od 03 godzina 15 UTC do 03 godzina 18 UTC
Wiatr 6 kt od północno-północny zachód
Widzialność 10 km lub więcej
Rozproszone chmury na wysokości 4800 ft

TAF: EGUB 031325Z 0315/0318 33006KT 9999 SCT048

Obserwacja i prognoza pogody dla ponad 4000 lotnisk (raport METAR i TAF).

Dostępne stacje oznaczono żółtymi i czerwonymi punktami na mapie.

Najedź kursorem aby zobaczyć nazwę stacji.

Kliknij aby zobaczyć obserwacje i prognozy pogody.

Aby zmienić mapę: kliknij na zielony przycisk z czarnym krzyżykiem, aby powiększyć; na zielony przycisk z myślnikiem, aby pomniejszyć; na zielone strzałki, aby przejść do map sąsiednich.


METAR-TAF: